sensor_id;sensor_type;location;lat;lon;timestamp;P1;durP1;ratioP1;P2;durP2;ratioP2
422;SDS011;198;48.752;9.180;2024-02-16T00:00:58;5.30;;;2.70;;
422;SDS011;198;48.752;9.180;2024-02-16T00:03:25;8.40;;;4.30;;
422;SDS011;198;48.752;9.180;2024-02-16T00:05:51;7.23;;;3.07;;
422;SDS011;198;48.752;9.180;2024-02-16T00:08:17;14.20;;;2.67;;
422;SDS011;198;48.752;9.180;2024-02-16T00:10:43;6.73;;;2.37;;
422;SDS011;198;48.752;9.180;2024-02-16T00:13:09;4.97;;;2.77;;
422;SDS011;198;48.752;9.180;2024-02-16T00:15:35;5.57;;;2.90;;
422;SDS011;198;48.752;9.180;2024-02-16T00:18:00;5.57;;;2.97;;
422;SDS011;198;48.752;9.180;2024-02-16T00:20:26;4.37;;;3.00;;
422;SDS011;198;48.752;9.180;2024-02-16T00:22:51;6.20;;;2.80;;
422;SDS011;198;48.752;9.180;2024-02-16T00:25:17;3.13;;;2.50;;
422;SDS011;198;48.752;9.180;2024-02-16T00:27:43;4.50;;;2.90;;
422;SDS011;198;48.752;9.180;2024-02-16T00:30:08;5.37;;;2.87;;
422;SDS011;198;48.752;9.180;2024-02-16T00:32:35;5.10;;;2.60;;
422;SDS011;198;48.752;9.180;2024-02-16T00:35:02;10.20;;;3.80;;
422;SDS011;198;48.752;9.180;2024-02-16T00:37:28;21.97;;;2.93;;
422;SDS011;198;48.752;9.180;2024-02-16T00:39:53;6.00;;;2.83;;
422;SDS011;198;48.752;9.180;2024-02-16T00:42:20;6.90;;;2.77;;
422;SDS011;198;48.752;9.180;2024-02-16T00:44:48;4.60;;;2.20;;
422;SDS011;198;48.752;9.180;2024-02-16T00:47:13;4.10;;;2.80;;
422;SDS011;198;48.752;9.180;2024-02-16T00:49:41;5.27;;;2.60;;
422;SDS011;198;48.752;9.180;2024-02-16T00:52:07;7.87;;;2.83;;
422;SDS011;198;48.752;9.180;2024-02-16T00:54:33;7.53;;;2.90;;
422;SDS011;198;48.752;9.180;2024-02-16T00:56:58;3.33;;;2.70;;
422;SDS011;198;48.752;9.180;2024-02-16T00:59:27;7.23;;;3.20;;
422;SDS011;198;48.752;9.180;2024-02-16T01:01:55;7.23;;;2.80;;
422;SDS011;198;48.752;9.180;2024-02-16T01:04:21;5.37;;;2.53;;
422;SDS011;198;48.752;9.180;2024-02-16T01:06:47;5.00;;;2.57;;
422;SDS011;198;48.752;9.180;2024-02-16T01:09:13;8.07;;;2.80;;
422;SDS011;198;48.752;9.180;2024-02-16T01:11:41;6.03;;;2.70;;
422;SDS011;198;48.752;9.180;2024-02-16T01:14:07;9.20;;;3.47;;
422;SDS011;198;48.752;9.180;2024-02-16T01:16:33;6.33;;;2.97;;
422;SDS011;198;48.752;9.180;2024-02-16T01:18:58;6.87;;;2.50;;
422;SDS011;198;48.752;9.180;2024-02-16T01:21:24;6.27;;;2.70;;
422;SDS011;198;48.752;9.180;2024-02-16T01:23:50;5.27;;;2.67;;
422;SDS011;198;48.752;9.180;2024-02-16T01:26:15;4.87;;;2.67;;
422;SDS011;198;48.752;9.180;2024-02-16T01:28:41;8.80;;;2.47;;
422;SDS011;198;48.752;9.180;2024-02-16T01:31:06;5.57;;;2.40;;
422;SDS011;198;48.752;9.180;2024-02-16T01:33:34;6.10;;;2.13;;
422;SDS011;198;48.752;9.180;2024-02-16T01:36:00;3.80;;;2.53;;
422;SDS011;198;48.752;9.180;2024-02-16T01:38:27;7.80;;;2.60;;
422;SDS011;198;48.752;9.180;2024-02-16T01:40:52;8.27;;;2.60;;
422;SDS011;198;48.752;9.180;2024-02-16T01:43:18;4.77;;;2.23;;
422;SDS011;198;48.752;9.180;2024-02-16T01:45:45;7.17;;;2.30;;
422;SDS011;198;48.752;9.180;2024-02-16T01:48:10;6.20;;;1.80;;
422;SDS011;198;48.752;9.180;2024-02-16T01:50:37;4.70;;;2.10;;
422;SDS011;198;48.752;9.180;2024-02-16T01:53:02;6.00;;;2.70;;
422;SDS011;198;48.752;9.180;2024-02-16T01:55:29;4.87;;;2.00;;
422;SDS011;198;48.752;9.180;2024-02-16T01:57:54;3.50;;;2.33;;
422;SDS011;198;48.752;9.180;2024-02-16T02:00:22;4.90;;;2.53;;
422;SDS011;198;48.752;9.180;2024-02-16T02:02:47;3.97;;;2.13;;
422;SDS011;198;48.752;9.180;2024-02-16T02:05:13;4.83;;;2.57;;
422;SDS011;198;48.752;9.180;2024-02-16T02:07:39;4.53;;;1.80;;
422;SDS011;198;48.752;9.180;2024-02-16T02:10:05;6.93;;;2.57;;
422;SDS011;198;48.752;9.180;2024-02-16T02:12:31;5.50;;;2.30;;
422;SDS011;198;48.752;9.180;2024-02-16T02:14:56;6.37;;;2.37;;
422;SDS011;198;48.752;9.180;2024-02-16T02:17:22;7.03;;;3.50;;
422;SDS011;198;48.752;9.180;2024-02-16T02:19:48;4.90;;;2.30;;
422;SDS011;198;48.752;9.180;2024-02-16T02:22:15;4.40;;;2.10;;
422;SDS011;198;48.752;9.180;2024-02-16T02:24:44;4.97;;;2.00;;
422;SDS011;198;48.752;9.180;2024-02-16T02:27:10;4.60;;;2.10;;
422;SDS011;198;48.752;9.180;2024-02-16T02:29:36;5.97;;;2.57;;
422;SDS011;198;48.752;9.180;2024-02-16T02:32:02;7.33;;;3.27;;
422;SDS011;198;48.752;9.180;2024-02-16T02:34:29;5.93;;;1.63;;
422;SDS011;198;48.752;9.180;2024-02-16T02:36:54;6.47;;;2.20;;
422;SDS011;198;48.752;9.180;2024-02-16T02:39:20;2.23;;;1.50;;
422;SDS011;198;48.752;9.180;2024-02-16T02:41:45;5.00;;;1.93;;
422;SDS011;198;48.752;9.180;2024-02-16T02:44:11;7.53;;;4.43;;
422;SDS011;198;48.752;9.180;2024-02-16T02:46:36;6.67;;;2.27;;
422;SDS011;198;48.752;9.180;2024-02-16T02:49:02;9.53;;;2.40;;
422;SDS011;198;48.752;9.180;2024-02-16T02:51:28;3.80;;;2.20;;
422;SDS011;198;48.752;9.180;2024-02-16T02:53:54;2.60;;;1.80;;
422;SDS011;198;48.752;9.180;2024-02-16T02:56:20;4.63;;;2.63;;
422;SDS011;198;48.752;9.180;2024-02-16T02:58:45;4.23;;;2.30;;
422;SDS011;198;48.752;9.180;2024-02-16T03:01:11;2.13;;;1.80;;
422;SDS011;198;48.752;9.180;2024-02-16T03:03:37;5.30;;;2.13;;
422;SDS011;198;48.752;9.180;2024-02-16T03:06:04;5.33;;;1.90;;
422;SDS011;198;48.752;9.180;2024-02-16T03:08:30;5.87;;;2.27;;
422;SDS011;198;48.752;9.180;2024-02-16T03:10:55;4.00;;;1.90;;
422;SDS011;198;48.752;9.180;2024-02-16T03:13:21;2.10;;;1.67;;
422;SDS011;198;48.752;9.180;2024-02-16T03:15:46;5.00;;;2.27;;
422;SDS011;198;48.752;9.180;2024-02-16T03:18:12;8.40;;;2.10;;
422;SDS011;198;48.752;9.180;2024-02-16T03:20:38;5.33;;;2.00;;
422;SDS011;198;48.752;9.180;2024-02-16T03:23:04;8.17;;;2.20;;
422;SDS011;198;48.752;9.180;2024-02-16T03:25:29;5.93;;;2.43;;
422;SDS011;198;48.752;9.180;2024-02-16T03:27:55;3.30;;;2.30;;
422;SDS011;198;48.752;9.180;2024-02-16T03:30:21;4.17;;;2.00;;
422;SDS011;198;48.752;9.180;2024-02-16T03:32:47;4.03;;;2.13;;
422;SDS011;198;48.752;9.180;2024-02-16T03:35:14;4.90;;;2.40;;
422;SDS011;198;48.752;9.180;2024-02-16T03:37:40;8.53;;;2.53;;
422;SDS011;198;48.752;9.180;2024-02-16T03:40:07;2.40;;;1.80;;
422;SDS011;198;48.752;9.180;2024-02-16T03:42:33;3.10;;;1.50;;
422;SDS011;198;48.752;9.180;2024-02-16T03:44:59;2.93;;;1.90;;
422;SDS011;198;48.752;9.180;2024-02-16T03:47:24;2.20;;;1.83;;
422;SDS011;198;48.752;9.180;2024-02-16T03:49:50;2.47;;;1.70;;
422;SDS011;198;48.752;9.180;2024-02-16T03:52:16;4.10;;;2.50;;
422;SDS011;198;48.752;9.180;2024-02-16T03:54:42;4.27;;;2.00;;
422;SDS011;198;48.752;9.180;2024-02-16T03:57:08;2.97;;;1.83;;
422;SDS011;198;48.752;9.180;2024-02-16T03:59:36;5.03;;;2.37;;
422;SDS011;198;48.752;9.180;2024-02-16T04:02:02;8.20;;;2.63;;
422;SDS011;198;48.752;9.180;2024-02-16T04:04:27;3.80;;;1.80;;
422;SDS011;198;48.752;9.180;2024-02-16T04:06:53;1.83;;;1.67;;
422;SDS011;198;48.752;9.180;2024-02-16T04:09:19;3.50;;;2.10;;
422;SDS011;198;48.752;9.180;2024-02-16T04:11:47;5.07;;;3.53;;
422;SDS011;198;48.752;9.180;2024-02-16T04:14:12;4.00;;;1.67;;
422;SDS011;198;48.752;9.180;2024-02-16T04:16:38;4.30;;;1.93;;
422;SDS011;198;48.752;9.180;2024-02-16T04:19:03;2.57;;;1.90;;
422;SDS011;198;48.752;9.180;2024-02-16T04:21:29;4.13;;;2.20;;
422;SDS011;198;48.752;9.180;2024-02-16T04:23:54;3.53;;;1.67;;
422;SDS011;198;48.752;9.180;2024-02-16T04:26:20;3.97;;;2.20;;
422;SDS011;198;48.752;9.180;2024-02-16T04:28:45;5.30;;;2.10;;
422;SDS011;198;48.752;9.180;2024-02-16T04:31:11;7.63;;;2.63;;
422;SDS011;198;48.752;9.180;2024-02-16T04:33:36;2.57;;;1.83;;
422;SDS011;198;48.752;9.180;2024-02-16T04:36:04;1.90;;;1.80;;
422;SDS011;198;48.752;9.180;2024-02-16T04:38:32;4.33;;;2.13;;
422;SDS011;198;48.752;9.180;2024-02-16T04:40:57;3.90;;;2.03;;
422;SDS011;198;48.752;9.180;2024-02-16T04:43:23;3.07;;;1.73;;
422;SDS011;198;48.752;9.180;2024-02-16T04:45:49;4.77;;;2.30;;
422;SDS011;198;48.752;9.180;2024-02-16T04:48:14;12.53;;;2.57;;
422;SDS011;198;48.752;9.180;2024-02-16T04:50:40;3.37;;;2.00;;
422;SDS011;198;48.752;9.180;2024-02-16T04:53:06;3.97;;;2.33;;
422;SDS011;198;48.752;9.180;2024-02-16T04:55:32;8.03;;;2.03;;
422;SDS011;198;48.752;9.180;2024-02-16T04:57:58;4.27;;;1.70;;
422;SDS011;198;48.752;9.180;2024-02-16T05:00:24;4.90;;;1.90;;
422;SDS011;198;48.752;9.180;2024-02-16T05:02:50;3.07;;;2.17;;
422;SDS011;198;48.752;9.180;2024-02-16T05:05:17;4.53;;;2.20;;
422;SDS011;198;48.752;9.180;2024-02-16T05:07:46;10.73;;;3.20;;
422;SDS011;198;48.752;9.180;2024-02-16T05:10:13;4.63;;;2.73;;
422;SDS011;198;48.752;9.180;2024-02-16T05:12:39;4.70;;;2.70;;
422;SDS011;198;48.752;9.180;2024-02-16T05:15:06;4.63;;;2.57;;
422;SDS011;198;48.752;9.180;2024-02-16T05:17:32;6.10;;;2.73;;
422;SDS011;198;48.752;9.180;2024-02-16T05:19:57;10.17;;;3.30;;
422;SDS011;198;48.752;9.180;2024-02-16T05:22:23;4.60;;;2.10;;
422;SDS011;198;48.752;9.180;2024-02-16T05:24:48;5.83;;;3.23;;
422;SDS011;198;48.752;9.180;2024-02-16T05:27:14;7.50;;;2.97;;
422;SDS011;198;48.752;9.180;2024-02-16T05:29:40;3.87;;;2.50;;
422;SDS011;198;48.752;9.180;2024-02-16T05:32:05;3.70;;;2.17;;
422;SDS011;198;48.752;9.180;2024-02-16T05:34:31;6.93;;;2.90;;
422;SDS011;198;48.752;9.180;2024-02-16T05:36:58;7.83;;;2.80;;
422;SDS011;198;48.752;9.180;2024-02-16T05:39:23;6.60;;;3.00;;
422;SDS011;198;48.752;9.180;2024-02-16T05:41:56;4.63;;;2.70;;
422;SDS011;198;48.752;9.180;2024-02-16T05:44:21;6.43;;;3.10;;
422;SDS011;198;48.752;9.180;2024-02-16T05:46:47;3.67;;;2.57;;
422;SDS011;198;48.752;9.180;2024-02-16T05:49:13;5.63;;;3.10;;
422;SDS011;198;48.752;9.180;2024-02-16T05:51:40;6.60;;;3.50;;
422;SDS011;198;48.752;9.180;2024-02-16T05:54:06;8.47;;;2.93;;
422;SDS011;198;48.752;9.180;2024-02-16T05:56:33;5.13;;;2.27;;
422;SDS011;198;48.752;9.180;2024-02-16T05:58:59;7.33;;;2.80;;
422;SDS011;198;48.752;9.180;2024-02-16T06:01:25;7.30;;;3.50;;
422;SDS011;198;48.752;9.180;2024-02-16T06:03:52;4.90;;;2.77;;
422;SDS011;198;48.752;9.180;2024-02-16T06:06:18;6.53;;;2.80;;
422;SDS011;198;48.752;9.180;2024-02-16T06:08:43;5.63;;;2.97;;
422;SDS011;198;48.752;9.180;2024-02-16T06:11:09;6.70;;;2.80;;
422;SDS011;198;48.752;9.180;2024-02-16T06:13:34;12.60;;;3.10;;
422;SDS011;198;48.752;9.180;2024-02-16T06:16:00;3.67;;;2.73;;
422;SDS011;198;48.752;9.180;2024-02-16T06:18:25;7.63;;;3.50;;
422;SDS011;198;48.752;9.180;2024-02-16T06:20:54;4.10;;;2.40;;
422;SDS011;198;48.752;9.180;2024-02-16T06:23:20;6.57;;;3.17;;
422;SDS011;198;48.752;9.180;2024-02-16T06:25:45;5.77;;;2.00;;
422;SDS011;198;48.752;9.180;2024-02-16T06:28:11;9.73;;;2.50;;
422;SDS011;198;48.752;9.180;2024-02-16T06:30:36;6.00;;;2.40;;
422;SDS011;198;48.752;9.180;2024-02-16T06:33:02;3.37;;;2.30;;
422;SDS011;198;48.752;9.180;2024-02-16T06:35:29;5.90;;;3.10;;
422;SDS011;198;48.752;9.180;2024-02-16T06:37:55;3.67;;;1.90;;
422;SDS011;198;48.752;9.180;2024-02-16T06:40:20;4.67;;;2.37;;
422;SDS011;198;48.752;9.180;2024-02-16T06:42:46;7.80;;;2.33;;
422;SDS011;198;48.752;9.180;2024-02-16T06:45:12;6.33;;;2.60;;
422;SDS011;198;48.752;9.180;2024-02-16T06:47:37;4.47;;;2.40;;
422;SDS011;198;48.752;9.180;2024-02-16T06:50:03;5.70;;;2.30;;
422;SDS011;198;48.752;9.180;2024-02-16T06:52:28;6.20;;;2.50;;
422;SDS011;198;48.752;9.180;2024-02-16T06:54:54;4.37;;;2.60;;
422;SDS011;198;48.752;9.180;2024-02-16T06:57:19;4.63;;;2.33;;
422;SDS011;198;48.752;9.180;2024-02-16T06:59:45;4.27;;;2.30;;
422;SDS011;198;48.752;9.180;2024-02-16T07:02:11;5.27;;;2.77;;
422;SDS011;198;48.752;9.180;2024-02-16T07:04:39;8.53;;;2.60;;
422;SDS011;198;48.752;9.180;2024-02-16T07:07:05;4.70;;;2.70;;
422;SDS011;198;48.752;9.180;2024-02-16T07:09:31;6.13;;;2.53;;
422;SDS011;198;48.752;9.180;2024-02-16T07:11:57;5.03;;;2.57;;
422;SDS011;198;48.752;9.180;2024-02-16T07:14:23;4.73;;;2.63;;
422;SDS011;198;48.752;9.180;2024-02-16T07:16:49;6.27;;;2.30;;
422;SDS011;198;48.752;9.180;2024-02-16T07:19:15;4.77;;;2.47;;
422;SDS011;198;48.752;9.180;2024-02-16T07:21:40;5.30;;;2.83;;
422;SDS011;198;48.752;9.180;2024-02-16T07:24:06;6.83;;;3.10;;
422;SDS011;198;48.752;9.180;2024-02-16T07:26:31;6.20;;;2.07;;
422;SDS011;198;48.752;9.180;2024-02-16T07:28:58;3.93;;;2.30;;
422;SDS011;198;48.752;9.180;2024-02-16T07:31:23;6.37;;;2.90;;
422;SDS011;198;48.752;9.180;2024-02-16T07:33:49;8.43;;;3.00;;
422;SDS011;198;48.752;9.180;2024-02-16T07:36:14;4.30;;;2.90;;
422;SDS011;198;48.752;9.180;2024-02-16T07:38:42;6.33;;;2.67;;
422;SDS011;198;48.752;9.180;2024-02-16T07:41:09;5.87;;;3.00;;
422;SDS011;198;48.752;9.180;2024-02-16T07:43:34;6.03;;;3.13;;
422;SDS011;198;48.752;9.180;2024-02-16T07:46:00;5.27;;;2.63;;
422;SDS011;198;48.752;9.180;2024-02-16T07:48:26;7.30;;;2.90;;
422;SDS011;198;48.752;9.180;2024-02-16T07:50:51;8.27;;;2.87;;
422;SDS011;198;48.752;9.180;2024-02-16T07:53:16;3.77;;;2.33;;
422;SDS011;198;48.752;9.180;2024-02-16T07:55:42;4.80;;;2.63;;
422;SDS011;198;48.752;9.180;2024-02-16T07:58:08;9.57;;;3.07;;
422;SDS011;198;48.752;9.180;2024-02-16T08:00:34;5.67;;;2.20;;
422;SDS011;198;48.752;9.180;2024-02-16T08:03:00;2.90;;;2.37;;
422;SDS011;198;48.752;9.180;2024-02-16T08:05:25;3.43;;;2.20;;
422;SDS011;198;48.752;9.180;2024-02-16T08:07:51;4.63;;;2.50;;
422;SDS011;198;48.752;9.180;2024-02-16T08:10:21;8.23;;;2.63;;
422;SDS011;198;48.752;9.180;2024-02-16T08:12:46;4.77;;;2.30;;
422;SDS011;198;48.752;9.180;2024-02-16T08:15:12;6.20;;;2.97;;
422;SDS011;198;48.752;9.180;2024-02-16T08:17:38;5.37;;;2.67;;
422;SDS011;198;48.752;9.180;2024-02-16T08:20:04;7.17;;;2.60;;
422;SDS011;198;48.752;9.180;2024-02-16T08:22:30;6.80;;;2.87;;
422;SDS011;198;48.752;9.180;2024-02-16T08:24:57;3.77;;;2.10;;
422;SDS011;198;48.752;9.180;2024-02-16T08:27:23;4.23;;;2.73;;
422;SDS011;198;48.752;9.180;2024-02-16T08:29:49;4.23;;;2.47;;
422;SDS011;198;48.752;9.180;2024-02-16T08:32:16;5.30;;;2.57;;
422;SDS011;198;48.752;9.180;2024-02-16T08:34:43;2.93;;;1.97;;
422;SDS011;198;48.752;9.180;2024-02-16T08:37:08;4.47;;;2.60;;
422;SDS011;198;48.752;9.180;2024-02-16T08:39:37;4.30;;;2.47;;
422;SDS011;198;48.752;9.180;2024-02-16T08:42:03;4.30;;;2.13;;
422;SDS011;198;48.752;9.180;2024-02-16T08:44:28;4.93;;;2.43;;
422;SDS011;198;48.752;9.180;2024-02-16T08:46:54;4.27;;;3.00;;
422;SDS011;198;48.752;9.180;2024-02-16T08:49:19;4.93;;;3.10;;
422;SDS011;198;48.752;9.180;2024-02-16T08:51:45;6.00;;;2.13;;
422;SDS011;198;48.752;9.180;2024-02-16T08:54:12;2.50;;;2.17;;
422;SDS011;198;48.752;9.180;2024-02-16T08:56:37;5.90;;;2.47;;
422;SDS011;198;48.752;9.180;2024-02-16T08:59:04;6.03;;;2.13;;
422;SDS011;198;48.752;9.180;2024-02-16T09:01:31;4.40;;;2.10;;
422;SDS011;198;48.752;9.180;2024-02-16T09:03:57;4.23;;;2.10;;
422;SDS011;198;48.752;9.180;2024-02-16T09:06:22;5.03;;;2.20;;
422;SDS011;198;48.752;9.180;2024-02-16T09:08:48;5.43;;;1.93;;
422;SDS011;198;48.752;9.180;2024-02-16T09:11:14;4.90;;;1.60;;
422;SDS011;198;48.752;9.180;2024-02-16T09:13:40;4.00;;;1.50;;
422;SDS011;198;48.752;9.180;2024-02-16T09:16:06;5.93;;;1.73;;
422;SDS011;198;48.752;9.180;2024-02-16T09:18:32;9.13;;;1.30;;
422;SDS011;198;48.752;9.180;2024-02-16T09:20:58;2.03;;;1.40;;
422;SDS011;198;48.752;9.180;2024-02-16T09:23:24;2.93;;;1.37;;
422;SDS011;198;48.752;9.180;2024-02-16T09:25:50;3.97;;;1.40;;
422;SDS011;198;48.752;9.180;2024-02-16T09:28:16;13.53;;;2.20;;
422;SDS011;198;48.752;9.180;2024-02-16T09:30:44;2.57;;;1.13;;
422;SDS011;198;48.752;9.180;2024-02-16T09:33:09;1.77;;;1.50;;
422;SDS011;198;48.752;9.180;2024-02-16T09:35:35;1.43;;;1.40;;
422;SDS011;198;48.752;9.180;2024-02-16T09:38:01;4.83;;;1.87;;
422;SDS011;198;48.752;9.180;2024-02-16T09:40:26;4.00;;;1.70;;
422;SDS011;198;48.752;9.180;2024-02-16T09:42:52;1.97;;;1.30;;
422;SDS011;198;48.752;9.180;2024-02-16T09:45:17;4.20;;;1.80;;
422;SDS011;198;48.752;9.180;2024-02-16T09:47:44;5.27;;;1.70;;
422;SDS011;198;48.752;9.180;2024-02-16T09:50:11;6.30;;;1.80;;
422;SDS011;198;48.752;9.180;2024-02-16T09:52:37;5.10;;;1.57;;
422;SDS011;198;48.752;9.180;2024-02-16T09:55:03;2.47;;;1.37;;
422;SDS011;198;48.752;9.180;2024-02-16T09:57:32;1.60;;;1.30;;
422;SDS011;198;48.752;9.180;2024-02-16T09:59:57;2.87;;;1.57;;
422;SDS011;198;48.752;9.180;2024-02-16T10:02:23;2.30;;;1.30;;
422;SDS011;198;48.752;9.180;2024-02-16T10:04:48;4.83;;;1.57;;
422;SDS011;198;48.752;9.180;2024-02-16T10:07:14;5.37;;;1.63;;
422;SDS011;198;48.752;9.180;2024-02-16T10:09:40;2.00;;;1.33;;
422;SDS011;198;48.752;9.180;2024-02-16T10:12:06;3.57;;;1.33;;
422;SDS011;198;48.752;9.180;2024-02-16T10:14:32;5.30;;;1.57;;
422;SDS011;198;48.752;9.180;2024-02-16T10:17:04;5.07;;;1.50;;
422;SDS011;198;48.752;9.180;2024-02-16T10:19:31;4.27;;;1.20;;
422;SDS011;198;48.752;9.180;2024-02-16T10:22:06;1.47;;;1.07;;
422;SDS011;198;48.752;9.180;2024-02-16T10:24:35;5.90;;;2.03;;
422;SDS011;198;48.752;9.180;2024-02-16T10:27:03;6.20;;;1.80;;
422;SDS011;198;48.752;9.180;2024-02-16T10:29:43;4.93;;;1.33;;
422;SDS011;198;48.752;9.180;2024-02-16T10:32:10;4.10;;;1.60;;
422;SDS011;198;48.752;9.180;2024-02-16T10:34:37;9.13;;;1.97;;
422;SDS011;198;48.752;9.180;2024-02-16T10:37:05;3.10;;;1.40;;
422;SDS011;198;48.752;9.180;2024-02-16T10:39:32;3.57;;;2.23;;
422;SDS011;198;48.752;9.180;2024-02-16T10:41:58;2.73;;;1.40;;
422;SDS011;198;48.752;9.180;2024-02-16T10:44:27;4.20;;;1.77;;
422;SDS011;198;48.752;9.180;2024-02-16T10:46:53;3.73;;;1.70;;
422;SDS011;198;48.752;9.180;2024-02-16T10:49:21;2.20;;;2.03;;
422;SDS011;198;48.752;9.180;2024-02-16T10:51:49;7.87;;;1.60;;
422;SDS011;198;48.752;9.180;2024-02-16T10:54:21;6.13;;;2.10;;
422;SDS011;198;48.752;9.180;2024-02-16T10:56:52;3.60;;;2.10;;
422;SDS011;198;48.752;9.180;2024-02-16T10:59:19;5.40;;;1.60;;
422;SDS011;198;48.752;9.180;2024-02-16T11:01:45;2.67;;;1.67;;
422;SDS011;198;48.752;9.180;2024-02-16T11:04:11;3.10;;;1.77;;
422;SDS011;198;48.752;9.180;2024-02-16T11:09:25;3.90;;;1.80;;
422;SDS011;198;48.752;9.180;2024-02-16T11:11:55;3.80;;;1.83;;
422;SDS011;198;48.752;9.180;2024-02-16T11:14:24;4.10;;;1.73;;
422;SDS011;198;48.752;9.180;2024-02-16T11:16:58;3.33;;;1.47;;
422;SDS011;198;48.752;9.180;2024-02-16T11:19:24;1.80;;;1.30;;
422;SDS011;198;48.752;9.180;2024-02-16T11:21:56;4.33;;;1.87;;
422;SDS011;198;48.752;9.180;2024-02-16T11:24:30;3.03;;;1.73;;
422;SDS011;198;48.752;9.180;2024-02-16T11:26:57;2.40;;;1.30;;
422;SDS011;198;48.752;9.180;2024-02-16T11:29:22;2.70;;;1.50;;
422;SDS011;198;48.752;9.180;2024-02-16T11:31:50;2.80;;;1.60;;
422;SDS011;198;48.752;9.180;2024-02-16T11:34:22;2.63;;;1.83;;
422;SDS011;198;48.752;9.180;2024-02-16T11:36:48;2.80;;;1.67;;
422;SDS011;198;48.752;9.180;2024-02-16T11:39:14;7.70;;;1.20;;
422;SDS011;198;48.752;9.180;2024-02-16T11:41:42;10.20;;;1.57;;
422;SDS011;198;48.752;9.180;2024-02-16T11:44:08;8.30;;;2.00;;
422;SDS011;198;48.752;9.180;2024-02-16T11:46:33;2.43;;;1.80;;
422;SDS011;198;48.752;9.180;2024-02-16T11:49:04;2.53;;;1.90;;
422;SDS011;198;48.752;9.180;2024-02-16T11:51:30;2.40;;;1.67;;
422;SDS011;198;48.752;9.180;2024-02-16T11:53:57;3.90;;;2.00;;
422;SDS011;198;48.752;9.180;2024-02-16T11:56:24;2.47;;;1.70;;
422;SDS011;198;48.752;9.180;2024-02-16T11:58:50;6.10;;;1.60;;
422;SDS011;198;48.752;9.180;2024-02-16T12:01:17;1.60;;;1.43;;
422;SDS011;198;48.752;9.180;2024-02-16T12:03:42;5.47;;;1.70;;
422;SDS011;198;48.752;9.180;2024-02-16T12:06:08;5.93;;;1.90;;
422;SDS011;198;48.752;9.180;2024-02-16T12:08:34;2.93;;;1.60;;
422;SDS011;198;48.752;9.180;2024-02-16T12:11:00;2.77;;;1.60;;
422;SDS011;198;48.752;9.180;2024-02-16T12:13:27;2.50;;;1.53;;
422;SDS011;198;48.752;9.180;2024-02-16T12:15:53;3.30;;;1.60;;
422;SDS011;198;48.752;9.180;2024-02-16T12:18:24;2.67;;;1.57;;
422;SDS011;198;48.752;9.180;2024-02-16T12:21:02;4.93;;;1.70;;
422;SDS011;198;48.752;9.180;2024-02-16T12:23:30;5.20;;;1.87;;
422;SDS011;198;48.752;9.180;2024-02-16T12:25:56;6.53;;;1.67;;
422;SDS011;198;48.752;9.180;2024-02-16T12:28:26;4.30;;;1.60;;
422;SDS011;198;48.752;9.180;2024-02-16T12:30:54;3.27;;;1.60;;
422;SDS011;198;48.752;9.180;2024-02-16T12:33:22;3.90;;;1.80;;
422;SDS011;198;48.752;9.180;2024-02-16T12:35:49;2.07;;;1.10;;
422;SDS011;198;48.752;9.180;2024-02-16T12:38:14;8.13;;;1.67;;
422;SDS011;198;48.752;9.180;2024-02-16T12:40:44;2.10;;;1.30;;
422;SDS011;198;48.752;9.180;2024-02-16T12:43:11;1.57;;;1.50;;
422;SDS011;198;48.752;9.180;2024-02-16T12:45:37;2.30;;;1.70;;
422;SDS011;198;48.752;9.180;2024-02-16T12:48:03;7.67;;;2.30;;
422;SDS011;198;48.752;9.180;2024-02-16T12:50:29;2.50;;;1.70;;
422;SDS011;198;48.752;9.180;2024-02-16T12:52:55;11.83;;;1.70;;
422;SDS011;198;48.752;9.180;2024-02-16T12:55:22;2.20;;;1.53;;
422;SDS011;198;48.752;9.180;2024-02-16T12:57:48;5.07;;;1.80;;
422;SDS011;198;48.752;9.180;2024-02-16T13:00:14;4.87;;;1.53;;
422;SDS011;198;48.752;9.180;2024-02-16T13:02:40;4.50;;;1.50;;
422;SDS011;198;48.752;9.180;2024-02-16T13:05:06;5.17;;;1.63;;
422;SDS011;198;48.752;9.180;2024-02-16T13:07:31;3.73;;;1.33;;
422;SDS011;198;48.752;9.180;2024-02-16T13:09:57;2.30;;;1.70;;
422;SDS011;198;48.752;9.180;2024-02-16T13:12:22;3.63;;;1.63;;
422;SDS011;198;48.752;9.180;2024-02-16T13:14:48;5.30;;;2.50;;
422;SDS011;198;48.752;9.180;2024-02-16T13:17:14;3.77;;;1.77;;
422;SDS011;198;48.752;9.180;2024-02-16T13:19:40;4.17;;;2.07;;
422;SDS011;198;48.752;9.180;2024-02-16T13:22:05;5.90;;;1.83;;
422;SDS011;198;48.752;9.180;2024-02-16T13:24:31;1.63;;;1.57;;
422;SDS011;198;48.752;9.180;2024-02-16T13:26:56;6.93;;;1.97;;
422;SDS011;198;48.752;9.180;2024-02-16T13:29:22;4.97;;;1.90;;
422;SDS011;198;48.752;9.180;2024-02-16T13:31:48;4.73;;;2.37;;
422;SDS011;198;48.752;9.180;2024-02-16T13:34:13;6.30;;;2.50;;
422;SDS011;198;48.752;9.180;2024-02-16T13:36:42;3.27;;;2.20;;
422;SDS011;198;48.752;9.180;2024-02-16T13:39:08;11.50;;;2.60;;
422;SDS011;198;48.752;9.180;2024-02-16T13:41:33;7.80;;;1.87;;
422;SDS011;198;48.752;9.180;2024-02-16T13:43:59;9.47;;;1.63;;
422;SDS011;198;48.752;9.180;2024-02-16T13:46:24;5.73;;;2.00;;
422;SDS011;198;48.752;9.180;2024-02-16T13:48:50;7.37;;;2.63;;
422;SDS011;198;48.752;9.180;2024-02-16T13:51:16;5.10;;;2.20;;
422;SDS011;198;48.752;9.180;2024-02-16T13:53:41;7.30;;;2.17;;
422;SDS011;198;48.752;9.180;2024-02-16T13:56:07;6.13;;;2.37;;
422;SDS011;198;48.752;9.180;2024-02-16T13:58:33;13.27;;;2.60;;
422;SDS011;198;48.752;9.180;2024-02-16T14:01:03;4.63;;;2.50;;
422;SDS011;198;48.752;9.180;2024-02-16T14:03:29;10.10;;;2.43;;
422;SDS011;198;48.752;9.180;2024-02-16T14:05:56;8.70;;;2.60;;
422;SDS011;198;48.752;9.180;2024-02-16T14:08:22;7.40;;;2.40;;
422;SDS011;198;48.752;9.180;2024-02-16T14:10:47;10.90;;;2.30;;
422;SDS011;198;48.752;9.180;2024-02-16T14:13:13;6.53;;;2.60;;
422;SDS011;198;48.752;9.180;2024-02-16T14:15:38;11.13;;;2.47;;
422;SDS011;198;48.752;9.180;2024-02-16T14:18:04;7.93;;;2.03;;
422;SDS011;198;48.752;9.180;2024-02-16T14:20:31;6.23;;;2.20;;
422;SDS011;198;48.752;9.180;2024-02-16T14:22:57;3.57;;;1.93;;
422;SDS011;198;48.752;9.180;2024-02-16T14:25:22;5.00;;;1.70;;
422;SDS011;198;48.752;9.180;2024-02-16T14:27:50;8.03;;;1.90;;
422;SDS011;198;48.752;9.180;2024-02-16T14:30:16;4.33;;;2.00;;
422;SDS011;198;48.752;9.180;2024-02-16T14:32:41;8.07;;;1.87;;
422;SDS011;198;48.752;9.180;2024-02-16T14:35:07;2.93;;;1.70;;
422;SDS011;198;48.752;9.180;2024-02-16T14:37:33;2.63;;;1.53;;
422;SDS011;198;48.752;9.180;2024-02-16T14:39:58;6.67;;;2.03;;
422;SDS011;198;48.752;9.180;2024-02-16T14:42:25;9.17;;;2.27;;
422;SDS011;198;48.752;9.180;2024-02-16T14:44:51;5.00;;;2.10;;
422;SDS011;198;48.752;9.180;2024-02-16T14:47:17;3.20;;;1.77;;
422;SDS011;198;48.752;9.180;2024-02-16T14:49:43;11.40;;;2.33;;
422;SDS011;198;48.752;9.180;2024-02-16T14:52:09;8.63;;;2.20;;
422;SDS011;198;48.752;9.180;2024-02-16T14:54:34;7.27;;;2.20;;
422;SDS011;198;48.752;9.180;2024-02-16T14:57:00;10.73;;;2.00;;
422;SDS011;198;48.752;9.180;2024-02-16T14:59:25;6.83;;;1.80;;
422;SDS011;198;48.752;9.180;2024-02-16T15:01:52;6.67;;;1.77;;
422;SDS011;198;48.752;9.180;2024-02-16T15:04:17;4.90;;;1.90;;
422;SDS011;198;48.752;9.180;2024-02-16T15:06:43;7.80;;;1.53;;
422;SDS011;198;48.752;9.180;2024-02-16T15:09:08;4.73;;;1.50;;
422;SDS011;198;48.752;9.180;2024-02-16T15:11:35;8.20;;;1.73;;
422;SDS011;198;48.752;9.180;2024-02-16T15:14:03;10.63;;;1.77;;
422;SDS011;198;48.752;9.180;2024-02-16T15:16:28;3.37;;;1.17;;
422;SDS011;198;48.752;9.180;2024-02-16T15:18:54;7.13;;;2.60;;
422;SDS011;198;48.752;9.180;2024-02-16T15:21:19;13.77;;;2.70;;
422;SDS011;198;48.752;9.180;2024-02-16T15:23:45;2.30;;;1.33;;
422;SDS011;198;48.752;9.180;2024-02-16T15:26:11;2.50;;;1.47;;
422;SDS011;198;48.752;9.180;2024-02-16T15:28:36;18.13;;;1.60;;
422;SDS011;198;48.752;9.180;2024-02-16T15:31:03;3.37;;;1.47;;
422;SDS011;198;48.752;9.180;2024-02-16T15:33:29;2.30;;;1.40;;
422;SDS011;198;48.752;9.180;2024-02-16T15:35:54;5.87;;;1.40;;
422;SDS011;198;48.752;9.180;2024-02-16T15:38:22;8.90;;;1.93;;
422;SDS011;198;48.752;9.180;2024-02-16T15:40:47;8.67;;;1.70;;